sensor_id;sensor_type;location;lat;lon;timestamp;P1;durP1;ratioP1;P2;durP2;ratioP2
7497;SDS011;3790;48.806;9.140;2023-05-07T00:03:38;3.80;;;1.60;;
7497;SDS011;3790;48.806;9.140;2023-05-07T00:08:39;15.63;;;5.00;;
7497;SDS011;3790;48.806;9.140;2023-05-07T00:13:41;6.38;;;4.30;;
7497;SDS011;3790;48.806;9.140;2023-05-07T00:18:42;10.23;;;5.85;;
7497;SDS011;3790;48.806;9.140;2023-05-07T00:23:42;8.32;;;5.15;;
7497;SDS011;3790;48.806;9.140;2023-05-07T00:28:43;6.18;;;4.07;;
7497;SDS011;3790;48.806;9.140;2023-05-07T00:33:43;8.00;;;3.60;;
7497;SDS011;3790;48.806;9.140;2023-05-07T00:38:44;4.85;;;3.30;;
7497;SDS011;3790;48.806;9.140;2023-05-07T00:43:44;3.60;;;2.17;;
7497;SDS011;3790;48.806;9.140;2023-05-07T00:48:45;4.15;;;2.40;;
7497;SDS011;3790;48.806;9.140;2023-05-07T00:53:45;4.70;;;3.00;;
7497;SDS011;3790;48.806;9.140;2023-05-07T00:58:47;5.25;;;3.15;;
7497;SDS011;3790;48.806;9.140;2023-05-07T01:03:48;5.43;;;2.60;;
7497;SDS011;3790;48.806;9.140;2023-05-07T01:08:49;3.80;;;2.33;;
7497;SDS011;3790;48.806;9.140;2023-05-07T01:13:50;4.20;;;2.25;;
7497;SDS011;3790;48.806;9.140;2023-05-07T01:18:52;3.28;;;1.98;;
7497;SDS011;3790;48.806;9.140;2023-05-07T01:23:53;5.13;;;1.95;;
7497;SDS011;3790;48.806;9.140;2023-05-07T01:28:54;3.83;;;1.98;;
7497;SDS011;3790;48.806;9.140;2023-05-07T01:33:55;3.88;;;2.40;;
7497;SDS011;3790;48.806;9.140;2023-05-07T01:38:59;4.43;;;2.00;;
7497;SDS011;3790;48.806;9.140;2023-05-07T01:44:00;3.78;;;2.10;;
7497;SDS011;3790;48.806;9.140;2023-05-07T01:49:01;4.63;;;2.40;;
7497;SDS011;3790;48.806;9.140;2023-05-07T01:54:01;3.35;;;1.92;;
7497;SDS011;3790;48.806;9.140;2023-05-07T01:59:02;3.45;;;2.33;;
7497;SDS011;3790;48.806;9.140;2023-05-07T02:04:03;4.57;;;2.20;;
7497;SDS011;3790;48.806;9.140;2023-05-07T02:09:03;3.85;;;2.47;;
7497;SDS011;3790;48.806;9.140;2023-05-07T02:14:04;3.78;;;2.20;;
7497;SDS011;3790;48.806;9.140;2023-05-07T02:19:05;3.17;;;2.00;;
7497;SDS011;3790;48.806;9.140;2023-05-07T02:24:05;4.63;;;2.58;;
7497;SDS011;3790;48.806;9.140;2023-05-07T02:29:06;4.68;;;2.53;;
7497;SDS011;3790;48.806;9.140;2023-05-07T02:34:06;2.67;;;1.73;;
7497;SDS011;3790;48.806;9.140;2023-05-07T02:39:07;3.45;;;2.03;;
7497;SDS011;3790;48.806;9.140;2023-05-07T02:44:08;4.50;;;2.75;;
7497;SDS011;3790;48.806;9.140;2023-05-07T02:49:09;2.85;;;1.73;;
7497;SDS011;3790;48.806;9.140;2023-05-07T02:54:09;3.67;;;2.00;;
7497;SDS011;3790;48.806;9.140;2023-05-07T02:59:10;4.45;;;2.75;;
7497;SDS011;3790;48.806;9.140;2023-05-07T03:04:10;5.35;;;2.80;;
7497;SDS011;3790;48.806;9.140;2023-05-07T03:09:11;3.65;;;2.67;;
7497;SDS011;3790;48.806;9.140;2023-05-07T03:14:12;5.30;;;2.40;;
7497;SDS011;3790;48.806;9.140;2023-05-07T03:19:12;4.47;;;1.90;;
7497;SDS011;3790;48.806;9.140;2023-05-07T03:24:21;4.13;;;1.95;;
7497;SDS011;3790;48.806;9.140;2023-05-07T03:29:22;4.90;;;2.42;;
7497;SDS011;3790;48.806;9.140;2023-05-07T03:34:37;4.83;;;2.50;;
7497;SDS011;3790;48.806;9.140;2023-05-07T03:39:40;5.35;;;2.42;;
7497;SDS011;3790;48.806;9.140;2023-05-07T03:44:47;4.07;;;2.70;;
7497;SDS011;3790;48.806;9.140;2023-05-07T03:49:57;3.70;;;2.33;;
7497;SDS011;3790;48.806;9.140;2023-05-07T04:00:45;5.15;;;1.90;;
7497;SDS011;3790;48.806;9.140;2023-05-07T04:16:58;3.88;;;3.03;;
7497;SDS011;3790;48.806;9.140;2023-05-07T04:22:09;3.40;;;1.95;;
7497;SDS011;3790;48.806;9.140;2023-05-07T04:27:10;5.57;;;1.90;;
7497;SDS011;3790;48.806;9.140;2023-05-07T04:32:20;4.97;;;2.63;;
7497;SDS011;3790;48.806;9.140;2023-05-07T04:37:47;3.37;;;2.23;;
7497;SDS011;3790;48.806;9.140;2023-05-07T04:48:05;3.78;;;2.10;;
7497;SDS011;3790;48.806;9.140;2023-05-07T04:53:05;3.40;;;2.35;;
7497;SDS011;3790;48.806;9.140;2023-05-07T05:03:46;2.80;;;1.67;;
7497;SDS011;3790;48.806;9.140;2023-05-07T05:08:59;4.40;;;2.17;;
7497;SDS011;3790;48.806;9.140;2023-05-07T05:19:34;4.30;;;1.75;;
7497;SDS011;3790;48.806;9.140;2023-05-07T05:30:25;3.35;;;1.52;;
7497;SDS011;3790;48.806;9.140;2023-05-07T05:41:18;4.25;;;2.10;;
7497;SDS011;3790;48.806;9.140;2023-05-07T05:46:52;3.10;;;2.05;;
7497;SDS011;3790;48.806;9.140;2023-05-07T05:51:46;4.80;;;2.20;;
7497;SDS011;3790;48.806;9.140;2023-05-07T05:56:46;6.30;;;2.15;;
7497;SDS011;3790;48.806;9.140;2023-05-07T06:07:14;4.65;;;2.55;;
7497;SDS011;3790;48.806;9.140;2023-05-07T06:12:15;4.22;;;2.50;;
7497;SDS011;3790;48.806;9.140;2023-05-07T06:22:58;6.15;;;2.80;;
7497;SDS011;3790;48.806;9.140;2023-05-07T06:28:05;6.05;;;2.60;;
7497;SDS011;3790;48.806;9.140;2023-05-07T06:38:43;5.43;;;2.47;;
7497;SDS011;3790;48.806;9.140;2023-05-07T06:43:43;3.78;;;2.67;;
7497;SDS011;3790;48.806;9.140;2023-05-07T06:49:02;3.47;;;2.25;;
7497;SDS011;3790;48.806;9.140;2023-05-07T06:54:02;5.20;;;3.13;;
7497;SDS011;3790;48.806;9.140;2023-05-07T06:59:04;4.40;;;2.65;;
7497;SDS011;3790;48.806;9.140;2023-05-07T07:04:04;3.53;;;2.67;;
7497;SDS011;3790;48.806;9.140;2023-05-07T07:09:05;6.10;;;2.53;;
7497;SDS011;3790;48.806;9.140;2023-05-07T07:14:06;3.80;;;2.10;;
7497;SDS011;3790;48.806;9.140;2023-05-07T07:19:06;2.90;;;1.80;;
7497;SDS011;3790;48.806;9.140;2023-05-07T07:24:07;3.17;;;1.70;;
7497;SDS011;3790;48.806;9.140;2023-05-07T07:29:07;3.58;;;2.08;;
7497;SDS011;3790;48.806;9.140;2023-05-07T07:34:08;3.05;;;1.80;;
7497;SDS011;3790;48.806;9.140;2023-05-07T07:39:08;3.33;;;2.13;;
7497;SDS011;3790;48.806;9.140;2023-05-07T07:44:09;3.92;;;1.83;;
7497;SDS011;3790;48.806;9.140;2023-05-07T07:49:12;3.17;;;1.88;;
7497;SDS011;3790;48.806;9.140;2023-05-07T07:54:13;3.92;;;1.70;;
7497;SDS011;3790;48.806;9.140;2023-05-07T07:59:13;2.97;;;1.83;;
7497;SDS011;3790;48.806;9.140;2023-05-07T08:04:17;3.80;;;2.20;;
7497;SDS011;3790;48.806;9.140;2023-05-07T08:09:56;3.22;;;1.98;;
7497;SDS011;3790;48.806;9.140;2023-05-07T08:15:03;3.60;;;2.20;;
7497;SDS011;3790;48.806;9.140;2023-05-07T08:20:04;4.05;;;2.83;;
7497;SDS011;3790;48.806;9.140;2023-05-07T08:25:05;4.15;;;2.20;;
7497;SDS011;3790;48.806;9.140;2023-05-07T08:30:06;4.65;;;2.60;;
7497;SDS011;3790;48.806;9.140;2023-05-07T08:35:07;3.80;;;2.22;;
7497;SDS011;3790;48.806;9.140;2023-05-07T08:40:11;5.07;;;1.90;;
7497;SDS011;3790;48.806;9.140;2023-05-07T08:45:11;3.22;;;1.70;;
7497;SDS011;3790;48.806;9.140;2023-05-07T08:50:12;2.90;;;1.70;;
7497;SDS011;3790;48.806;9.140;2023-05-07T08:55:13;2.50;;;1.60;;
7497;SDS011;3790;48.806;9.140;2023-05-07T09:00:17;3.40;;;1.67;;
7497;SDS011;3790;48.806;9.140;2023-05-07T09:05:17;5.03;;;2.20;;
7497;SDS011;3790;48.806;9.140;2023-05-07T09:10:18;2.95;;;1.40;;
7497;SDS011;3790;48.806;9.140;2023-05-07T09:15:20;2.92;;;1.60;;
7497;SDS011;3790;48.806;9.140;2023-05-07T09:20:21;2.47;;;1.30;;
7497;SDS011;3790;48.806;9.140;2023-05-07T09:25:28;2.75;;;1.52;;
7497;SDS011;3790;48.806;9.140;2023-05-07T09:30:30;2.60;;;1.45;;
7497;SDS011;3790;48.806;9.140;2023-05-07T09:35:31;2.72;;;1.23;;
7497;SDS011;3790;48.806;9.140;2023-05-07T09:40:31;2.83;;;1.50;;
7497;SDS011;3790;48.806;9.140;2023-05-07T09:45:32;3.28;;;1.60;;
7497;SDS011;3790;48.806;9.140;2023-05-07T09:50:35;2.95;;;1.50;;
7497;SDS011;3790;48.806;9.140;2023-05-07T09:55:40;3.33;;;1.60;;
7497;SDS011;3790;48.806;9.140;2023-05-07T10:00:41;4.25;;;1.80;;
7497;SDS011;3790;48.806;9.140;2023-05-07T10:05:43;2.25;;;1.13;;
7497;SDS011;3790;48.806;9.140;2023-05-07T10:10:44;5.05;;;1.15;;
7497;SDS011;3790;48.806;9.140;2023-05-07T10:15:46;2.25;;;1.30;;
7497;SDS011;3790;48.806;9.140;2023-05-07T10:20:47;2.33;;;1.13;;
7497;SDS011;3790;48.806;9.140;2023-05-07T10:25:51;4.88;;;1.30;;
7497;SDS011;3790;48.806;9.140;2023-05-07T10:36:23;1.95;;;1.20;;
7497;SDS011;3790;48.806;9.140;2023-05-07T10:41:25;4.22;;;1.45;;
7497;SDS011;3790;48.806;9.140;2023-05-07T10:46:25;2.55;;;1.20;;
7497;SDS011;3790;48.806;9.140;2023-05-07T10:51:26;3.53;;;1.42;;
7497;SDS011;3790;48.806;9.140;2023-05-07T10:56:27;1.92;;;1.33;;
7497;SDS011;3790;48.806;9.140;2023-05-07T11:07:37;2.13;;;1.38;;
7497;SDS011;3790;48.806;9.140;2023-05-07T11:12:16;2.08;;;1.35;;
7497;SDS011;3790;48.806;9.140;2023-05-07T11:17:17;3.65;;;1.70;;
7497;SDS011;3790;48.806;9.140;2023-05-07T11:22:53;2.22;;;1.20;;
7497;SDS011;3790;48.806;9.140;2023-05-07T11:27:47;2.53;;;1.30;;
7497;SDS011;3790;48.806;9.140;2023-05-07T11:32:48;2.83;;;1.30;;
7497;SDS011;3790;48.806;9.140;2023-05-07T11:37:49;2.78;;;1.55;;
7497;SDS011;3790;48.806;9.140;2023-05-07T11:42:50;2.95;;;1.67;;
7497;SDS011;3790;48.806;9.140;2023-05-07T11:47:51;2.53;;;1.63;;
7497;SDS011;3790;48.806;9.140;2023-05-07T11:52:51;2.50;;;1.10;;
7497;SDS011;3790;48.806;9.140;2023-05-07T11:57:52;2.90;;;1.20;;
7497;SDS011;3790;48.806;9.140;2023-05-07T12:02:53;2.55;;;1.25;;
7497;SDS011;3790;48.806;9.140;2023-05-07T12:07:55;3.08;;;1.67;;
7497;SDS011;3790;48.806;9.140;2023-05-07T12:12:59;2.65;;;1.40;;
7497;SDS011;3790;48.806;9.140;2023-05-07T12:17:59;2.33;;;1.40;;
7497;SDS011;3790;48.806;9.140;2023-05-07T12:23:00;3.88;;;1.80;;
7497;SDS011;3790;48.806;9.140;2023-05-07T12:28:01;2.67;;;1.63;;
7497;SDS011;3790;48.806;9.140;2023-05-07T12:33:04;2.92;;;1.35;;
7497;SDS011;3790;48.806;9.140;2023-05-07T12:38:08;3.67;;;1.33;;
7497;SDS011;3790;48.806;9.140;2023-05-07T12:43:25;7.25;;;1.70;;
7497;SDS011;3790;48.806;9.140;2023-05-07T12:48:27;3.17;;;1.55;;
7497;SDS011;3790;48.806;9.140;2023-05-07T12:53:29;3.95;;;1.48;;
7497;SDS011;3790;48.806;9.140;2023-05-07T12:58:33;6.20;;;2.30;;
7497;SDS011;3790;48.806;9.140;2023-05-07T13:03:35;4.68;;;1.88;;
7497;SDS011;3790;48.806;9.140;2023-05-07T13:08:38;3.85;;;1.73;;
7497;SDS011;3790;48.806;9.140;2023-05-07T13:13:40;5.15;;;1.58;;
7497;SDS011;3790;48.806;9.140;2023-05-07T13:18:41;3.70;;;1.40;;
7497;SDS011;3790;48.806;9.140;2023-05-07T13:23:43;6.57;;;1.88;;
7497;SDS011;3790;48.806;9.140;2023-05-07T13:28:44;5.10;;;2.13;;
7497;SDS011;3790;48.806;9.140;2023-05-07T13:33:44;7.60;;;2.05;;
7497;SDS011;3790;48.806;9.140;2023-05-07T13:38:45;2.80;;;1.40;;
7497;SDS011;3790;48.806;9.140;2023-05-07T13:43:46;4.43;;;1.50;;
7497;SDS011;3790;48.806;9.140;2023-05-07T13:48:47;3.95;;;1.77;;
7497;SDS011;3790;48.806;9.140;2023-05-07T13:53:47;3.22;;;1.50;;
7497;SDS011;3790;48.806;9.140;2023-05-07T13:58:48;3.53;;;0.88;;
7497;SDS011;3790;48.806;9.140;2023-05-07T14:03:48;2.58;;;1.10;;
7497;SDS011;3790;48.806;9.140;2023-05-07T14:08:49;1.70;;;0.98;;
7497;SDS011;3790;48.806;9.140;2023-05-07T14:13:50;2.10;;;1.00;;
7497;SDS011;3790;48.806;9.140;2023-05-07T14:18:50;2.92;;;1.30;;
7497;SDS011;3790;48.806;9.140;2023-05-07T14:23:51;4.40;;;1.20;;
7497;SDS011;3790;48.806;9.140;2023-05-07T14:28:51;2.45;;;1.40;;
7497;SDS011;3790;48.806;9.140;2023-05-07T14:33:52;3.97;;;1.10;;
7497;SDS011;3790;48.806;9.140;2023-05-07T14:38:53;3.25;;;1.70;;
7497;SDS011;3790;48.806;9.140;2023-05-07T14:43:54;2.03;;;1.20;;
7497;SDS011;3790;48.806;9.140;2023-05-07T14:48:56;2.50;;;1.38;;
7497;SDS011;3790;48.806;9.140;2023-05-07T14:53:57;3.03;;;1.30;;
7497;SDS011;3790;48.806;9.140;2023-05-07T14:59:01;2.97;;;1.23;;
7497;SDS011;3790;48.806;9.140;2023-05-07T15:04:03;4.88;;;1.13;;
7497;SDS011;3790;48.806;9.140;2023-05-07T15:09:04;1.92;;;1.20;;
7497;SDS011;3790;48.806;9.140;2023-05-07T15:14:05;2.10;;;1.20;;
7497;SDS011;3790;48.806;9.140;2023-05-07T15:19:05;2.60;;;1.30;;
7497;SDS011;3790;48.806;9.140;2023-05-07T15:24:06;1.92;;;1.00;;
7497;SDS011;3790;48.806;9.140;2023-05-07T15:29:07;2.85;;;1.23;;
7497;SDS011;3790;48.806;9.140;2023-05-07T15:34:09;2.53;;;1.30;;
7497;SDS011;3790;48.806;9.140;2023-05-07T15:39:10;2.10;;;1.40;;
7497;SDS011;3790;48.806;9.140;2023-05-07T15:44:11;4.05;;;1.90;;
7497;SDS011;3790;48.806;9.140;2023-05-07T15:49:11;3.17;;;1.70;;
7497;SDS011;3790;48.806;9.140;2023-05-07T15:54:15;5.13;;;2.10;;
7497;SDS011;3790;48.806;9.140;2023-05-07T15:59:16;4.00;;;2.13;;
7497;SDS011;3790;48.806;9.140;2023-05-07T16:04:17;2.80;;;1.50;;
7497;SDS011;3790;48.806;9.140;2023-05-07T16:09:17;3.90;;;1.90;;
7497;SDS011;3790;48.806;9.140;2023-05-07T16:14:18;6.63;;;2.00;;
7497;SDS011;3790;48.806;9.140;2023-05-07T16:19:25;3.70;;;2.10;;
7497;SDS011;3790;48.806;9.140;2023-05-07T16:24:26;3.53;;;1.95;;
7497;SDS011;3790;48.806;9.140;2023-05-07T16:29:26;3.33;;;1.83;;
7497;SDS011;3790;48.806;9.140;2023-05-07T16:34:27;3.78;;;2.20;;
7497;SDS011;3790;48.806;9.140;2023-05-07T16:39:27;6.78;;;3.55;;
7497;SDS011;3790;48.806;9.140;2023-05-07T16:44:28;3.72;;;2.10;;
7497;SDS011;3790;48.806;9.140;2023-05-07T16:49:28;3.72;;;2.20;;
7497;SDS011;3790;48.806;9.140;2023-05-07T16:54:29;3.60;;;2.05;;
7497;SDS011;3790;48.806;9.140;2023-05-07T16:59:29;3.03;;;2.03;;
7497;SDS011;3790;48.806;9.140;2023-05-07T17:04:32;3.50;;;2.05;;
7497;SDS011;3790;48.806;9.140;2023-05-07T17:09:32;2.25;;;1.75;;
7497;SDS011;3790;48.806;9.140;2023-05-07T17:14:33;2.97;;;1.60;;
7497;SDS011;3790;48.806;9.140;2023-05-07T17:19:34;8.60;;;2.22;;
7497;SDS011;3790;48.806;9.140;2023-05-07T17:24:37;4.70;;;2.30;;
7497;SDS011;3790;48.806;9.140;2023-05-07T17:29:37;3.55;;;2.25;;
7497;SDS011;3790;48.806;9.140;2023-05-07T17:34:38;4.13;;;2.60;;
7497;SDS011;3790;48.806;9.140;2023-05-07T17:39:38;3.85;;;2.63;;
7497;SDS011;3790;48.806;9.140;2023-05-07T17:44:39;3.30;;;2.40;;
7497;SDS011;3790;48.806;9.140;2023-05-07T17:49:39;4.65;;;2.50;;
7497;SDS011;3790;48.806;9.140;2023-05-07T17:54:41;3.10;;;1.92;;
7497;SDS011;3790;48.806;9.140;2023-05-07T17:59:41;3.20;;;2.20;;
7497;SDS011;3790;48.806;9.140;2023-05-07T18:04:42;2.90;;;1.80;;
7497;SDS011;3790;48.806;9.140;2023-05-07T18:09:43;3.60;;;2.10;;
7497;SDS011;3790;48.806;9.140;2023-05-07T18:14:44;3.75;;;2.70;;
7497;SDS011;3790;48.806;9.140;2023-05-07T18:19:46;7.85;;;2.72;;
7497;SDS011;3790;48.806;9.140;2023-05-07T18:24:46;3.63;;;2.60;;
7497;SDS011;3790;48.806;9.140;2023-05-07T18:29:47;4.03;;;2.50;;
7497;SDS011;3790;48.806;9.140;2023-05-07T18:34:47;4.28;;;2.40;;
7497;SDS011;3790;48.806;9.140;2023-05-07T18:39:48;5.93;;;2.33;;
7497;SDS011;3790;48.806;9.140;2023-05-07T18:44:49;3.67;;;2.47;;
7497;SDS011;3790;48.806;9.140;2023-05-07T18:49:49;4.40;;;2.40;;
7497;SDS011;3790;48.806;9.140;2023-05-07T18:54:50;4.15;;;2.40;;
7497;SDS011;3790;48.806;9.140;2023-05-07T18:59:54;5.43;;;2.40;;
7497;SDS011;3790;48.806;9.140;2023-05-07T19:04:55;4.35;;;2.35;;
7497;SDS011;3790;48.806;9.140;2023-05-07T19:09:55;4.07;;;2.63;;
7497;SDS011;3790;48.806;9.140;2023-05-07T19:14:56;3.85;;;2.70;;
7497;SDS011;3790;48.806;9.140;2023-05-07T19:19:57;4.15;;;2.67;;
7497;SDS011;3790;48.806;9.140;2023-05-07T19:24:57;5.28;;;3.10;;
7497;SDS011;3790;48.806;9.140;2023-05-07T19:29:58;4.28;;;2.67;;
7497;SDS011;3790;48.806;9.140;2023-05-07T19:34:59;3.85;;;2.67;;
7497;SDS011;3790;48.806;9.140;2023-05-07T19:39:59;4.72;;;3.13;;
7497;SDS011;3790;48.806;9.140;2023-05-07T19:45:04;4.97;;;2.78;;
7497;SDS011;3790;48.806;9.140;2023-05-07T19:50:05;5.82;;;3.20;;
7497;SDS011;3790;48.806;9.140;2023-05-07T19:55:06;4.30;;;2.88;;
7497;SDS011;3790;48.806;9.140;2023-05-07T20:00:07;3.83;;;2.72;;
7497;SDS011;3790;48.806;9.140;2023-05-07T20:05:08;5.82;;;3.70;;
7497;SDS011;3790;48.806;9.140;2023-05-07T20:10:10;5.13;;;4.00;;
7497;SDS011;3790;48.806;9.140;2023-05-07T20:15:10;8.45;;;4.07;;
7497;SDS011;3790;48.806;9.140;2023-05-07T20:20:11;4.80;;;3.33;;
7497;SDS011;3790;48.806;9.140;2023-05-07T20:25:11;7.65;;;3.17;;
7497;SDS011;3790;48.806;9.140;2023-05-07T20:30:13;4.05;;;3.38;;
7497;SDS011;3790;48.806;9.140;2023-05-07T20:35:14;4.97;;;4.15;;
7497;SDS011;3790;48.806;9.140;2023-05-07T20:40:15;6.07;;;4.50;;
7497;SDS011;3790;48.806;9.140;2023-05-07T20:45:15;5.10;;;4.07;;
7497;SDS011;3790;48.806;9.140;2023-05-07T20:50:16;5.85;;;4.57;;
7497;SDS011;3790;48.806;9.140;2023-05-07T20:55:16;8.68;;;4.95;;
7497;SDS011;3790;48.806;9.140;2023-05-07T21:00:17;8.98;;;3.92;;
7497;SDS011;3790;48.806;9.140;2023-05-07T21:05:18;5.00;;;4.18;;
7497;SDS011;3790;48.806;9.140;2023-05-07T21:10:18;6.45;;;4.50;;
7497;SDS011;3790;48.806;9.140;2023-05-07T21:15:19;7.43;;;5.03;;
7497;SDS011;3790;48.806;9.140;2023-05-07T21:20:20;4.95;;;4.18;;
7497;SDS011;3790;48.806;9.140;2023-05-07T21:25:20;5.95;;;4.95;;
7497;SDS011;3790;48.806;9.140;2023-05-07T21:30:24;7.88;;;5.22;;
7497;SDS011;3790;48.806;9.140;2023-05-07T21:35:24;6.32;;;4.53;;
7497;SDS011;3790;48.806;9.140;2023-05-07T21:40:25;5.97;;;5.38;;
7497;SDS011;3790;48.806;9.140;2023-05-07T21:45:26;5.95;;;5.35;;
7497;SDS011;3790;48.806;9.140;2023-05-07T21:50:26;6.53;;;5.47;;
7497;SDS011;3790;48.806;9.140;2023-05-07T21:55:27;10.70;;;6.40;;
7497;SDS011;3790;48.806;9.140;2023-05-07T22:00:28;8.40;;;6.60;;
7497;SDS011;3790;48.806;9.140;2023-05-07T22:05:30;9.00;;;6.68;;
7497;SDS011;3790;48.806;9.140;2023-05-07T22:10:30;7.88;;;7.07;;
7497;SDS011;3790;48.806;9.140;2023-05-07T22:15:31;7.53;;;6.82;;
7497;SDS011;3790;48.806;9.140;2023-05-07T22:20:32;9.45;;;7.93;;
7497;SDS011;3790;48.806;9.140;2023-05-07T22:25:32;10.15;;;7.40;;
7497;SDS011;3790;48.806;9.140;2023-05-07T22:30:34;9.25;;;8.35;;
7497;SDS011;3790;48.806;9.140;2023-05-07T22:35:34;12.70;;;11.38;;
7497;SDS011;3790;48.806;9.140;2023-05-07T22:40:35;13.48;;;12.10;;
7497;SDS011;3790;48.806;9.140;2023-05-07T22:45:35;11.93;;;10.73;;
7497;SDS011;3790;48.806;9.140;2023-05-07T22:50:36;13.05;;;11.23;;
7497;SDS011;3790;48.806;9.140;2023-05-07T22:55:37;13.00;;;11.73;;
7497;SDS011;3790;48.806;9.140;2023-05-07T23:00:38;12.38;;;9.55;;
7497;SDS011;3790;48.806;9.140;2023-05-07T23:05:38;10.32;;;9.38;;
7497;SDS011;3790;48.806;9.140;2023-05-07T23:10:39;11.65;;;10.10;;
7497;SDS011;3790;48.806;9.140;2023-05-07T23:15:39;9.85;;;8.18;;
7497;SDS011;3790;48.806;9.140;2023-05-07T23:20:40;10.95;;;9.48;;
7497;SDS011;3790;48.806;9.140;2023-05-07T23:25:42;10.02;;;8.90;;
7497;SDS011;3790;48.806;9.140;2023-05-07T23:30:43;13.23;;;9.70;;
7497;SDS011;3790;48.806;9.140;2023-05-07T23:35:43;13.38;;;11.98;;
7497;SDS011;3790;48.806;9.140;2023-05-07T23:40:44;13.85;;;12.40;;
7497;SDS011;3790;48.806;9.140;2023-05-07T23:45:45;12.75;;;11.57;;
7497;SDS011;3790;48.806;9.140;2023-05-07T23:50:45;11.20;;;10.10;;
7497;SDS011;3790;48.806;9.140;2023-05-07T23:55:46;11.63;;;10.52;;
